createdAt,value
2019-03-29T13:59:08.070Z,32.28
2019-03-29T14:01:41.645Z,26.10
2019-03-29T14:04:13.609Z,20.90
2019-03-29T14:09:50.479Z,20.57
2019-03-29T14:12:22.728Z,13.50
2019-03-29T14:14:54.718Z,17.45
2019-03-29T14:17:27.722Z,18.23
2019-03-29T14:19:59.643Z,19.13
2019-03-29T14:22:31.800Z,20.40
2019-03-29T14:25:04.709Z,17.77
2019-03-29T14:27:36.642Z,18.07
2019-03-29T14:30:10.722Z,13.50
2019-03-29T14:32:43.933Z,14.98
2019-03-29T14:35:15.802Z,17.95
2019-03-29T14:37:48.302Z,17.67
2019-03-29T14:40:20.525Z,17.37
2019-03-29T14:42:55.862Z,16.93
2019-03-29T14:45:30.841Z,15.68
2019-03-29T14:48:02.946Z,13.32
2019-03-29T14:50:35.008Z,17.77
2019-03-29T14:53:07.327Z,15.60
2019-03-29T14:55:40.339Z,20.93
2019-03-29T14:58:15.373Z,14.18
2019-03-29T15:00:48.781Z,16.80
2019-03-29T15:03:20.657Z,17.02
2019-03-29T15:05:52.257Z,22.82
2019-03-29T15:08:25.608Z,21.75
2019-03-29T15:10:57.651Z,23.92
2019-03-29T15:13:29.793Z,16.43
2019-03-29T15:16:01.848Z,19.43
2019-03-29T15:18:33.887Z,19.27
2019-03-29T15:21:06.293Z,17.65
2019-03-29T15:23:38.318Z,17.25
2019-03-29T15:26:10.411Z,18.27
2019-03-29T15:28:44.010Z,19.75
2019-03-29T15:31:15.915Z,20.52
2019-03-29T15:33:49.257Z,21.37
2019-03-29T15:36:21.308Z,22.33
2019-03-29T15:38:53.566Z,24.77
2019-03-29T15:41:25.359Z,18.55
2019-03-29T15:43:57.815Z,20.02
2019-03-29T15:46:29.856Z,20.77
2019-03-29T15:49:01.974Z,17.05
2019-03-29T15:51:34.246Z,22.53
2019-03-29T15:54:06.465Z,20.83
2019-03-29T15:56:38.409Z,21.20
2019-03-29T15:59:10.403Z,17.20
2019-03-29T16:01:42.487Z,21.20
2019-03-29T16:04:14.314Z,18.15
2019-03-29T16:06:46.547Z,21.75
2019-03-29T16:09:18.610Z,20.92
2019-03-29T16:11:51.127Z,14.63
2019-03-29T16:14:23.614Z,16.90
2019-03-29T16:16:55.585Z,23.13
2019-03-29T16:19:27.585Z,18.00
2019-03-29T16:21:59.717Z,16.05
2019-03-29T16:24:31.776Z,25.08
2019-03-29T16:28:42.170Z,16.60
2019-03-29T16:31:14.615Z,12.73
2019-03-29T16:33:46.813Z,13.08
2019-03-29T16:36:18.938Z,12.63
2019-03-29T16:38:51.100Z,10.18
2019-03-29T16:41:27.853Z,10.55
2019-03-29T16:43:59.993Z,12.28
2019-03-29T16:46:32.709Z,9.85
2019-03-29T16:49:05.067Z,9.40
2019-03-29T16:51:37.406Z,11.18
2019-03-29T16:54:12.178Z,9.68
2019-03-29T16:56:44.396Z,12.15
2019-03-29T16:59:18.814Z,8.50
2019-03-29T17:01:51.426Z,8.43
2019-03-29T17:04:24.008Z,8.30
2019-03-29T17:06:55.799Z,9.63
2019-03-29T17:09:27.712Z,10.75
2019-03-29T17:11:59.849Z,11.83
2019-03-29T17:14:32.007Z,12.98
2019-03-29T17:17:03.864Z,11.12
2019-03-29T17:19:36.118Z,10.68
2019-03-29T17:22:08.079Z,10.72
2019-03-29T17:24:40.321Z,8.95
2019-03-29T17:27:12.291Z,12.68
2019-03-29T17:29:44.149Z,13.00
2019-03-29T17:32:16.094Z,12.63
2019-03-29T17:34:48.683Z,14.30
2019-03-29T17:37:20.478Z,12.10
2019-03-29T17:39:53.204Z,13.00
2019-03-29T17:42:25.201Z,12.47
2019-03-29T17:44:58.992Z,12.18
2019-03-29T17:47:30.870Z,12.83
2019-03-29T17:50:02.756Z,10.43
2019-03-29T17:52:36.753Z,12.18
2019-03-29T17:55:10.558Z,13.05
2019-03-29T17:57:42.498Z,15.53
2019-03-29T18:00:16.724Z,11.33
2019-03-29T18:02:49.428Z,18.95
2019-03-29T18:05:21.570Z,15.03
2019-03-29T18:07:53.845Z,17.40
2019-03-29T18:10:26.374Z,15.95
2019-03-29T18:12:58.219Z,19.87
2019-03-29T18:15:30.515Z,18.25
2019-03-29T18:18:06.255Z,17.48
2019-03-29T18:20:38.542Z,21.90
2019-03-29T18:23:10.668Z,17.33
2019-03-29T18:25:42.865Z,16.45
2019-03-29T18:28:14.998Z,18.73
2019-03-29T18:30:46.832Z,16.07
2019-03-29T18:33:22.666Z,17.80
2019-03-29T18:35:55.060Z,16.37
2019-03-29T18:38:28.163Z,19.70
2019-03-29T18:41:00.244Z,22.80
2019-03-29T18:43:32.293Z,16.50
2019-03-29T18:46:04.363Z,18.53
2019-03-29T18:48:36.516Z,19.73
2019-03-29T18:51:08.380Z,18.77
2019-03-29T18:53:40.512Z,19.97
2019-03-29T18:56:13.017Z,17.82
2019-03-29T18:58:45.144Z,17.70
2019-03-29T19:01:17.232Z,17.03
2019-03-29T19:03:49.363Z,17.37
2019-03-29T19:06:21.703Z,19.87
2019-03-29T19:08:54.980Z,17.83
2019-03-29T19:11:27.237Z,20.80
2019-03-29T19:13:59.673Z,17.07
2019-03-29T19:16:31.792Z,21.23
2019-03-29T19:19:10.250Z,28.27
2019-03-29T19:21:38.701Z,23.30
2019-03-29T19:24:10.625Z,26.73
2019-03-29T19:26:42.886Z,34.40
2019-03-29T19:29:14.811Z,37.13
2019-03-29T19:31:47.900Z,36.63
2019-03-29T19:34:19.953Z,30.83
2019-03-29T19:36:52.145Z,25.10
2019-03-29T19:39:24.077Z,20.10
2019-03-29T19:41:56.341Z,20.10
2019-03-29T19:44:28.420Z,20.53
2019-03-29T19:47:12.903Z,18.73
2019-03-29T19:49:34.802Z,17.43
2019-03-29T19:52:07.128Z,19.17
2019-03-29T19:54:39.226Z,23.90
2019-03-29T19:57:11.518Z,28.30
2019-03-29T19:59:48.711Z,34.38
2019-03-29T20:02:20.291Z,44.50
2019-03-29T20:04:52.521Z,49.37
2019-03-29T20:07:24.827Z,58.50
2019-03-29T20:09:58.295Z,56.07
2019-03-29T20:12:30.347Z,60.43
2019-03-29T20:15:02.961Z,53.08
2019-03-29T20:17:38.469Z,54.38
2019-03-29T20:20:13.221Z,48.48
2019-03-29T20:22:46.312Z,43.05
2019-03-29T20:25:19.207Z,37.88
2019-03-29T20:27:58.346Z,37.83
2019-03-29T20:30:31.186Z,35.05
2019-03-29T20:33:05.237Z,34.15
2019-03-29T20:35:38.412Z,30.90
2019-03-29T20:38:10.762Z,29.40
2019-03-29T20:40:42.898Z,27.87
2019-03-29T20:43:14.777Z,27.62
2019-03-29T20:45:49.695Z,31.23
2019-03-29T20:48:24.033Z,25.47
2019-03-29T20:50:55.996Z,25.52
2019-03-29T20:53:28.618Z,22.98
2019-03-29T20:56:00.591Z,24.30
2019-03-29T20:58:34.105Z,20.20
2019-03-29T21:01:11.857Z,23.35
2019-03-29T21:03:50.737Z,26.60
2019-03-29T21:06:22.843Z,27.52
2019-03-29T21:08:54.703Z,28.15
2019-03-29T21:11:26.632Z,28.30
2019-03-29T21:13:59.200Z,28.30
2019-03-29T21:16:31.417Z,23.45
2019-03-29T21:19:05.093Z,29.53
2019-03-29T21:21:37.108Z,28.60
2019-03-29T21:24:09.097Z,24.57
2019-03-29T21:26:41.236Z,27.22
2019-03-29T21:29:13.146Z,26.93
2019-03-29T21:31:47.697Z,22.35
2019-03-29T21:34:19.641Z,23.17
2019-03-29T21:36:52.019Z,21.83
2019-03-29T21:39:24.309Z,24.20
2019-03-29T21:41:58.248Z,21.03
2019-03-29T21:44:30.434Z,21.17
2019-03-29T21:47:02.860Z,19.80
2019-03-29T21:49:35.058Z,22.87
2019-03-29T21:52:07.057Z,21.33
2019-03-29T21:54:39.726Z,22.83
2019-03-29T21:57:11.933Z,21.80
2019-03-29T21:59:44.108Z,21.87
2019-03-29T22:02:16.343Z,22.30
2019-03-29T22:04:48.479Z,23.57
2019-03-29T22:07:20.453Z,22.37
2019-03-29T22:09:52.429Z,18.77
2019-03-29T22:12:24.573Z,19.67
2019-03-29T22:14:58.125Z,20.15
2019-03-29T22:17:30.187Z,21.80
2019-03-29T22:20:02.385Z,20.60
2019-03-29T22:22:34.765Z,21.70
2019-03-29T22:25:08.347Z,18.43
2019-03-29T22:27:40.585Z,19.97
2019-03-29T22:30:12.615Z,19.67
2019-03-29T22:32:45.012Z,37.60
2019-03-29T22:35:17.343Z,28.30
2019-03-29T22:37:49.440Z,32.03
2019-03-29T22:40:21.268Z,32.47
2019-03-29T22:42:53.101Z,35.77
2019-03-29T22:45:28.281Z,31.17
2019-03-29T22:48:00.430Z,32.57
2019-03-29T22:50:34.727Z,30.47
2019-03-29T22:53:06.714Z,29.67
2019-03-29T22:55:38.969Z,30.37
2019-03-29T22:58:12.023Z,29.50
2019-03-29T23:00:47.919Z,30.83
2019-03-29T23:03:20.637Z,30.47
2019-03-29T23:05:52.573Z,29.07
2019-03-29T23:08:24.787Z,30.53
2019-03-29T23:10:56.575Z,31.00
2019-03-29T23:13:30.688Z,31.13
2019-03-29T23:16:02.780Z,30.57
2019-03-29T23:18:35.152Z,33.33
2019-03-29T23:21:06.992Z,31.50
2019-03-29T23:23:39.079Z,32.23
2019-03-29T23:26:11.004Z,33.05
2019-03-29T23:28:43.453Z,36.73
2019-03-29T23:31:15.768Z,34.63
2019-03-29T23:33:48.142Z,32.23
2019-03-29T23:36:20.507Z,35.93
2019-03-29T23:38:52.957Z,33.93
2019-03-29T23:41:25.385Z,31.80
2019-03-29T23:43:57.462Z,35.40
2019-03-29T23:46:32.736Z,37.67
2019-03-29T23:49:20.023Z,34.33
2019-03-29T23:51:40.282Z,34.53
2019-03-29T23:54:12.119Z,34.87
2019-03-29T23:56:44.247Z,35.13
2019-03-29T23:59:16.691Z,37.50
